Data for 10/20/2014

Time Sea-Level Adjusted Pressure Absolute Pressure Temperature Relative Humidity Dew Point   
(mb) (inHg) (mb) (inHg) (C) (F) (%) (C) (F)
00:05 1018 30.06 847 25.01 11.2 52.2 31 -5.4 22.2
00:10 1018 30.06 847 25.01 11 51.9 31 -5.6 22
00:15 1018 30.06 847 25.01 11.2 52.2 30 -5.8 21.6
00:20 1018 30.06 847 25.01 11.2 52.1 30 -5.9 21.3
00:25 1018 30.06 847 25.01 11.3 52.4 29 -6.2 20.9
00:30 1018 30.06 847 25.01 11 51.9 29 -6.2 20.9
00:35 1018 30.06 847 25.01 10.2 50.3 31 -6.2 20.9
00:40 1018 30.06 847 25.01 10.2 50.4 30 -6.8 19.8
00:45 1018 30.06 847 25.01 11 51.8 28 -6.6 20.2
00:50 1018 30.06 847 25.01 11.1 51.9 29 -6.2 20.9
00:55 1018 30.06 847 25.01 10.7 51.2 30 -6.2 20.9
01:00 1018 30.06 847 25.01 10.1 50.1 32 -5.8 21.5
01:05 1018 30.06 847 25.01 9.6 49.2 32 -6.2 20.9
01:10 1018 30.06 847 25.01 9.7 49.5 32 -6.1 21.1
01:15 1018 30.06 847 25.01 9.6 49.3 32 -6.4 20.5
01:20 1018 30.06 847 25.01 9.9 49.9 31 -6.4 20.4
01:25 1018 30.06 847 25.01 10 50 30 -6.5 20.2
01:30 1018 30.06 847 25.01 10.2 50.4 30 -6.6 20
01:35 1018 30.06 847 25.01 10.2 50.4 30 -6.7 19.9
01:40 1018 30.06 847 25.01 10.1 50.1 31 -6.4 20.5
01:45 1018 30.06 847 25.01 9.9 49.8 32 -6.2 20.9
01:50 1018 30.06 847 25.01 9.5 49.1 32 -6.5 20.4
01:55 1018 30.06 847 25.01 9.5 49.1 30 -7.3 18.8
02:00 1018 30.06 847 25.01 9.6 49.3 30 -7 19.4
02:05 1018 30.06 847 25.01 9.5 49.1 30 -7.1 19.2
02:10 1018 30.06 847 25.01 9.7 49.4 30 -7.1 19.1
02:15 1018 30.06 847 25.01 9 48.2 31 -7.1 19.2
02:20 1018 30.06 847 25.01 8.6 47.5 32 -7.1 19.3
02:25 1018 30.06 847 25.01 8.3 46.9 32 -7.6 18.3
02:30 1018 30.06 847 25.01 8.9 48 29 -8.2 17.2
02:35 1018 30.06 847 25.01 10 49.9 27 -8 17.7
02:40 1018 30.06 847 25.01 10 49.9 28 -7.7 18.1
02:45 1018 30.06 847 25.01 9.9 49.9 29 -7.4 18.6
02:50 1018 30.06 847 25.01 9.5 49.1 31 -7 19.5
02:55 1018 30.06 847 25.01 9.5 49.1 30 -7.4 18.6
03:00 1018 30.06 847 25.01 9.7 49.5 30 -6.9 19.5
03:05 1018 30.06 847 25.01 9 48.3 31 -7.1 19.2
03:10 1018 30.06 847 25.01 8.9 48 31 -7.3 18.8
03:15 1018 30.06 847 25.01 8.8 47.9 31 -7.4 18.8
03:20 1018 30.06 847 25.01 9 48.2 30 -7.7 18.1
03:25 1018 30.06 847 25.01 9.5 49.1 28 -8.2 17.3
03:30 1018 30.06 847 25.01 9.7 49.5 28 -7.7 18.1
03:35 1018 30.06 847 25.01 9.5 49 29 -7.8 17.9
03:40 1018 30.06 847 25.01 9.5 49 29 -7.5 18.5
03:45 1018 30.06 847 25.01 9 48.1 31 -7.2 19.1
03:50 1018 30.06 847 25.01 8.4 47.1 33 -7.2 19.1
03:55 1018 30.06 847 25.01 8 46.5 33 -7.3 18.9
04:00 1018 30.06 847 25.01 7.7 45.9 34 -7.2 19
04:05 1018 30.06 847 25.01 7.7 45.8 33 -7.5 18.4
04:10 1018 30.06 847 25.01 8 46.3 33 -7.4 18.7
04:15 1018 30.06 847 25.01 8 46.3 33 -7.4 18.7
04:20 1018 30.06 847 25.01 7.9 46.3 33 -7.4 18.6
04:25 1018 30.06 847 25.01 8.5 47.3 32 -7.4 18.7
04:30 1018 30.06 847 25.01 8.6 47.5 31 -7.4 18.7
04:35 1018 30.06 847 25.01 8.9 48 32 -7 19.4
04:40 1018 30.06 847 25.01 8.7 47.7 33 -6.7 19.9
04:45 1018 30.06 847 25.01 8 46.3 32 -7.6 18.2
04:50 1018 30.06 847 25.01 9 48.3 28 -8.7 16.4
04:55 1018 30.06 847 25.01 10.1 50.1 28 -7.5 18.6
05:00 1018 30.06 847 25.01 9.3 48.7 34 -5.7 21.7
05:05 1018 30.06 847 25.01 7.7 45.8 35 -6.9 19.5
05:10 1018 30.06 847 25.01 8.1 46.6 32 -7.6 18.4
05:15 1018 30.06 847 25.01 8.2 46.8 32 -7.4 18.6
05:20 1018 30.06 847 25.01 8.7 47.6 32 -7.1 19.3
05:25 1018 30.06 847 25.01 8.4 47.1 32 -7.3 18.9
05:30 1018 30.06 847 25.01 8.3 46.9 33 -7 19.4
05:35 1018 30.06 847 25.01 7.7 45.9 34 -7.2 19.1
05:40 1018 30.06 847 25.01 7.7 45.9 34 -7.2 19
05:45 1018 30.06 847 25.01 7.6 45.8 36 -6.6 20
05:50 1018 30.06 847 25.01 7.4 45.2 36 -6.9 19.6
05:55 1018 30.06 847 25.01 7.6 45.7 35 -6.9 19.6
06:00 1018 30.06 847 25.01 7.6 45.7 35 -6.7 19.9
06:05 1017 30.03 847 25.01 7.6 45.8 35 -6.9 19.6
06:10 1017 30.03 847 25.01 7.7 45.9 35 -6.8 19.8
06:15 1017 30.03 847 25.01 7.6 45.7 34 -7.2 19
06:20 1017 30.03 847 25.01 7.9 46.2 34 -7 19.4
06:25 1017 30.03 847 25.01 7.8 46.1 34 -6.9 19.6
06:30 1017 30.03 847 25.01 7.7 45.9 35 -6.8 19.8
06:35 1017 30.03 847 25.01 7.6 45.7 35 -6.8 19.7
06:40 1017 30.03 847 25.01 7.5 45.5 37 -6.3 20.6
06:45 1017 30.03 847 25.01 7.2 45 37 -6.5 20.2
06:50 1017 30.03 847 25.01 7.3 45.1 36 -6.7 20
06:55 1017 30.03 847 25.01 7.4 45.3 36 -6.6 20.1
07:00 1017 30.03 847 25.01 7.5 45.5 35 -6.8 19.7
07:05 1017 30.03 847 25.01 8.1 46.5 33 -7.1 19.2
07:10 1017 30.03 847 25.01 8.7 47.7 33 -6.8 19.8
07:15 1017 30.03 847 25.01 8.8 47.9 32 -6.8 19.7
07:20 1017 30.03 847 25.01 8.9 48 32 -6.9 19.5
07:25 1017 30.03 847 25.01 9.2 48.5 31 -7 19.3
07:30 1017 30.03 847 25.01 9.5 49 31 -6.9 19.7
07:35 1018 30.06 847 25.01 9.8 49.6 30 -6.9 19.6
07:40 1018 30.06 847 25.01 10.3 50.5 29 -7.1 19.2
07:45 1017 30.03 847 25.01 10.4 50.7 30 -6.5 20.4
07:50 1017 30.03 847 25.01 10.4 50.7 31 -6.2 20.9
07:55 1017 30.03 847 25.01 10 50.1 31 -6.2 20.8
08:00 1018 30.06 847 25.01 10.1 50.2 31 -6.1 21.1
08:05 1018 30.06 847 25.01 10.3 50.6 31 -6 21.2
08:10 1017 30.03 847 25.01 10.7 51.2 31 -5.8 21.5
08:15 1017 30.03 847 25.01 11.2 52.1 31 -5.5 22.2
08:20 1018 30.06 847 25.01 11.4 52.5 31 -5.2 22.7
08:25 1018 30.06 847 25.01 11.6 52.9 31 -5 23
08:30 1018 30.06 847 25.01 11.9 53.5 31 -4.8 23.4
08:35 1018 30.06 847 25.01 12.4 54.3 30 -4.7 23.6
08:40 1018 30.06 847 25.01 12.8 55.1 29 -4.9 23.2
08:45 1018 30.06 847 25.01 13.2 55.7 27 -5.1 22.8
08:50 1018 30.06 847 25.01 13.5 56.2 27 -5 23.1
08:55 1017 30.03 847 25.01 13.7 56.7 28 -4.4 24.1
09:00 1017 30.03 847 25.01 14 57.2 27 -4.6 23.8
09:05 1017 30.03 847 25.01 14.4 57.8 27 -4.1 24.6
09:10 1017 30.03 847 25.01 14.6 58.3 27 -4.2 24.5
09:15 1017 30.03 847 25.01 14.8 58.6 26 -4.4 24
09:20 1017 30.03 847 25.01 15.2 59.4 26 -4.2 24.5
09:25 1017 30.03 847 25.01 15.6 60 25 -4.3 24.2
09:30 1017 30.03 847 25.01 16 60.7 25 -3.8 25.1
09:35 1017 30.03 847 25.01 16.7 62 23 -4.7 23.5
09:40 1017 30.03 847 25.01 17.2 62.9 22 -4.7 23.6
09:45 1017 30.03 846 24.98 17.7 63.8 22 -4.2 24.5
09:50 1017 30.03 846 24.98 17.8 64 23 -3.7 25.3
09:55 1017 30.03 846 24.98 18.3 65 21 -4 24.8
10:00 1017 30.03 846 24.98 18.7 65.7 22 -3.2 26.2
10:05 1017 30.03 846 24.98 19 66.2 23 -2.6 27.3
10:10 1017 30.03 846 24.98 17.9 64.3 25 -2 28.3
10:15 1017 30.03 846 24.98 18.1 64.5 24 -2.7 27.1
10:20 1017 30.03 846 24.98 18.7 65.7 23 -2.5 27.6
10:25 1017 30.03 846 24.98 17.6 63.7 25 -2.3 27.9
10:30 1017 30.03 846 24.98 17.3 63.1 26 -2.4 27.8
10:35 1017 30.03 846 24.98 17.6 63.7 26 -2.3 27.9
10:40 1017 30.03 846 24.98 18.6 65.5 24 -2.4 27.6
10:45 1017 30.03 846 24.98 19.3 66.7 24 -1.6 29.1
10:50 1017 30.03 846 24.98 19.2 66.5 25 -1.4 29.5
10:55 1017 30.03 846 24.98 18.7 65.7 25 -1.4 29.5
11:00 1017 30.03 846 24.98 18.9 66.1 24 -1.9 28.5
11:05 1017 30.03 846 24.98 19.8 67.7 23 -1.8 28.8
11:10 1017 30.03 846 24.98 20 68.1 23 -1.7 28.9
11:15 1017 30.03 846 24.98 19.9 67.9 23 -1.5 29.3
11:20 1017 30.03 846 24.98 19.7 67.4 23 -2 28.5
11:25 1017 30.03 846 24.98 20 68.1 24 -1.2 29.9
11:30 1017 30.03 846 24.98 20.1 68.1 23 -1.6 29.1
11:35 1017 30.03 846 24.98 19.9 67.8 25 -0.3 31.4
11:40 1017 30.03 846 24.98 19.7 67.4 24 -1.4 29.6
11:45 1016 30 846 24.98 20.2 68.4 23 -1.5 29.3
11:50 1016 30 846 24.98 20 68 22 -1.9 28.6
11:55 1016 30 845 24.95 20.8 69.4 22 -1.6 29
12:00 1016 30 845 24.95 20.2 68.4 22 -1.9 28.7
12:05 1016 30 845 24.95 21.4 70.6 23 -0.7 30.8
12:10 1016 30 845 24.95 20.9 69.7 23 -1 30.1
12:15 1016 30 845 24.95 20.8 69.5 22 -1.5 29.3
12:20 1016 30 845 24.95 20.9 69.6 21 -1.8 28.8
12:25 1016 30 845 24.95 21 69.8 21 -2.3 27.9
12:30 1016 30 845 24.95 21.6 71 21 -1.4 29.5
12:35 1016 30 845 24.95 22.1 71.8 20 -1.7 29
12:40 1016 30 845 24.95 22 71.6 20 -2 28.4
12:45 1015 29.97 845 24.95 22.8 73.1 19 -1.9 28.5
12:50 1015 29.97 845 24.95 22.8 73.1 19 -1.5 29.2
12:55 1015 29.97 845 24.95 23 73.5 20 -1.2 29.9
13:00 1015 29.97 844 24.92 22.4 72.2 21 -0.6 30.8
13:05 1015 29.97 844 24.92 22.9 73.2 19 -1.6 29.2
13:10 1015 29.97 844 24.92 22.8 73 20 -1.3 29.7
13:15 1015 29.97 844 24.92 22.5 72.6 20 -1.4 29.4
13:20 1015 29.97 844 24.92 22.8 73 19 -2 28.4
13:25 1015 29.97 844 24.92 23.4 74 18 -1.9 28.6
13:30 1015 29.97 844 24.92 24.1 75.4 18 -1.6 29.1
13:35 1015 29.97 844 24.92 24.3 75.7 16 -2.6 27.3
13:40 1015 29.97 844 24.92 24.1 75.4 17 -2.3 27.9
13:45 1015 29.97 844 24.92 23.7 74.7 17 -2.6 27.3
13:50 1015 29.97 844 24.92 24.3 75.7 15 -3.6 25.5
13:55 1015 29.97 844 24.92 24.5 76 15 -3.5 25.7
14:00 1014 29.94 844 24.92 24.9 76.9 15 -3.3 26.1
14:05 1014 29.94 844 24.92 25.1 77.2 18 -0.9 30.3
14:10 1014 29.94 844 24.92 24.7 76.4 15 -3.2 26.3
14:15 1014 29.94 844 24.92 24.1 75.3 16 -3.3 26
14:20 1014 29.94 844 24.92 23.6 74.4 17 -2.6 27.4
14:25 1014 29.94 844 24.92 23.5 74.4 17 -2.7 27.2
14:30 1014 29.94 844 24.92 23.9 75 16 -2.9 26.9
14:35 1014 29.94 843 24.89 23.5 74.4 17 -3.1 26.4
14:40 1014 29.94 843 24.89 23.3 74 17 -3.1 26.4
14:45 1014 29.94 843 24.89 23 73.4 18 -2.7 27.1
14:50 1014 29.94 843 24.89 23.1 73.5 17 -3.3 26
14:55 1014 29.94 843 24.89 23.8 74.8 15 -3.8 25.2
15:00 1014 29.94 843 24.89 24.5 76.2 15 -3.8 25.1
15:05 1014 29.94 843 24.89 24.8 76.6 15 -3.3 26
15:10 1014 29.94 843 24.89 24.2 75.6 15 -3.4 25.8
15:15 1014 29.94 843 24.89 23.9 75 16 -2.9 26.7
15:20 1014 29.94 843 24.89 24.3 75.7 15 -3.7 25.4
15:25 1014 29.94 843 24.89 25.1 77.1 16 -2.7 27.1
15:30 1014 29.94 843 24.89 25.4 77.8 15 -2.9 26.7
15:35 1014 29.94 843 24.89 25.6 78 14 -3.3 26
15:40 1014 29.94 843 24.89 25.7 78.2 15 -2.4 27.7
15:45 1014 29.94 843 24.89 25.5 77.9 15 -2.8 27
15:50 1014 29.94 843 24.89 24.4 75.9 16 -2.9 26.8
15:55 1014 29.94 843 24.89 23.8 74.8 17 -2.1 28.1
16:00 1014 29.94 843 24.89 23.6 74.4 17 -2.5 27.5
16:05 1014 29.94 843 24.89 23.6 74.4 18 -2.1 28.2
16:10 1014 29.94 843 24.89 23.8 74.9 16 -2.9 26.7
16:15 1014 29.94 843 24.89 24.1 75.4 17 -2.4 27.7
16:20 1014 29.94 843 24.89 24.2 75.5 16 -3.4 26
16:25 1014 29.94 843 24.89 24.2 75.5 18 -1.7 28.9
16:30 1014 29.94 843 24.89 23.6 74.4 20 -0.5 31.2
16:35 1014 29.94 843 24.89 23.2 73.8 19 -1.2 29.8
16:40 1014 29.94 843 24.89 23.1 73.6 21 -0.3 31.5
16:45 1014 29.94 843 24.89 23.1 73.5 20 -0.9 30.4
16:50 1014 29.94 843 24.89 22.9 73.2 20 -1.2 29.9
16:55 1014 29.94 843 24.89 22.8 73.1 20 -1 30.2
17:00 1014 29.94 843 24.89 23.2 73.8 21 -0.2 31.6
17:05 1014 29.94 843 24.89 23.1 73.5 20 -0.8 30.6
17:10 1014 29.94 843 24.89 22.4 72.4 21 -0.5 31.1
17:15 1014 29.94 843 24.89 21.9 71.5 22 -0.3 31.4
17:20 1014 29.94 843 24.89 21.8 71.2 22 -0.4 31.2
17:25 1014 29.94 843 24.89 21.4 70.5 22 -0.8 30.6
17:30 1014 29.94 843 24.89 21 69.8 23 -0.8 30.5
17:35 1014 29.94 843 24.89 20.6 69 23 -1.1 30
17:40 1014 29.94 843 24.89 20.3 68.6 23 -1.1 30.1
17:45 1014 29.94 843 24.89 20 67.9 25 -0.6 30.8
17:50 1014 29.94 843 24.89 19.7 67.4 24 -1.1 30
17:55 1014 29.94 843 24.89 19.6 67.4 24 -1.1 30
18:00 1014 29.94 843 24.89 19.7 67.4 24 -1.2 29.8
18:05 1014 29.94 843 24.89 19.7 67.4 24 -1.1 30.1
18:10 1014 29.94 843 24.89 19.6 67.2 25 -0.9 30.4
18:15 1014 29.94 843 24.89 19.3 66.8 25 -1.2 29.8
18:20 1014 29.94 843 24.89 19 66.3 26 -0.6 30.9
18:25 1014 29.94 843 24.89 18.3 64.9 27 -0.7 30.8
18:30 1014 29.94 843 24.89 18 64.3 28 -0.6 30.9
18:35 1014 29.94 843 24.89 17.6 63.7 29 -0.7 30.7
18:40 1014 29.94 843 24.89 17.5 63.5 28 -0.9 30.3
18:45 1014 29.94 843 24.89 17.7 63.9 28 -1 30.2
18:50 1014 29.94 843 24.89 18 64.4 28 -0.6 30.9
18:55 1014 29.94 843 24.89 17.7 63.8 29 -0.4 31.2
19:00 1014 29.94 843 24.89 17.1 62.7 30 -0.5 31
19:05 1014 29.94 843 24.89 16.7 62 30 -0.7 30.7
19:10 1014 29.94 843 24.89 16.6 61.9 30 -0.8 30.5
19:15 1014 29.94 843 24.89 16.5 61.7 30 -0.9 30.5
19:20 1014 29.94 843 24.89 16.3 61.4 31 -0.8 30.5
19:25 1014 29.94 843 24.89 16.2 61.1 32 -0.6 31
19:30 1014 29.94 843 24.89 16.1 61 32 -0.4 31.3
19:35 1014 29.94 843 24.89 16.1 61.1 31 -0.8 30.6
19:40 1014 29.94 843 24.89 16.2 61.2 31 -0.7 30.8
19:45 1014 29.94 843 24.89 16.1 60.9 32 -0.5 31.1
19:50 1014 29.94 843 24.89 15.6 60.1 33 -0.6 30.9
19:55 1014 29.94 843 24.89 15.4 59.8 33 -0.7 30.8
20:00 1014 29.94 843 24.89 15.4 59.6 33 -0.8 30.5
20:05 1013 29.91 843 24.89 15.4 59.8 33 -0.9 30.5
20:10 1013 29.91 843 24.89 15.6 60 33 -0.6 30.9
20:15 1013 29.91 843 24.89 15.6 60 33 -0.8 30.6
20:20 1013 29.91 843 24.89 15.4 59.7 32 -0.9 30.3
20:25 1013 29.91 843 24.89 15.6 60.1 33 -0.6 31
20:30 1013 29.91 843 24.89 15.2 59.4 33 -0.7 30.8
20:35 1013 29.91 843 24.89 15.1 59.1 33 -0.8 30.5
20:40 1013 29.91 843 24.89 15.2 59.3 35 0 32.1
20:45 1013 29.91 843 24.89 15.2 59.4 35 -0.2 31.6
20:50 1013 29.91 843 24.89 15 59 34 -0.6 30.9
20:55 1013 29.91 843 24.89 14.8 58.7 34 -0.7 30.8
21:00 1013 29.91 843 24.89 14.6 58.3 35 -0.4 31.3
21:05 1013 29.91 843 24.89 14.4 58 35 -0.7 30.8
21:10 1013 29.91 843 24.89 14.7 58.4 35 -0.6 30.9
21:15 1013 29.91 842 24.86 14.6 58.4 35 -0.6 31
21:20 1013 29.91 842 24.86 14.5 58.1 36 -0.5 31.1
21:25 1013 29.91 842 24.86 14.2 57.5 36 -0.8 30.6
21:30 1013 29.91 842 24.86 14.3 57.7 35 -0.8 30.5
21:35 1013 29.91 842 24.86 14.7 58.5 34 -0.9 30.4
21:40 1013 29.91 842 24.86 15.2 59.3 32 -1.2 29.9
21:45 1013 29.91 842 24.86 15.6 60 32 -0.8 30.6
21:50 1013 29.91 842 24.86 15.3 59.5 33 -0.7 30.7
21:55 1013 29.91 842 24.86 14.8 58.6 35 -0.6 31
22:00 1013 29.91 842 24.86 14.6 58.2 35 -0.7 30.8
22:05 1013 29.91 842 24.86 14.8 58.6 34 -1 30.2
22:10 1013 29.91 842 24.86 15.2 59.3 33 -0.9 30.4
22:15 1013 29.91 842 24.86 15.4 59.6 33 -0.8 30.6
22:20 1013 29.91 842 24.86 15.2 59.4 33 -1 30.3
22:25 1013 29.91 842 24.86 15.5 59.8 32 -0.9 30.3
22:30 1013 29.91 842 24.86 15.4 59.8 33 -0.9 30.5
22:35 1013 29.91 842 24.86 15.2 59.4 33 -0.7 30.7
22:40 1013 29.91 842 24.86 14.9 58.8 34 -0.6 30.9
22:45 1013 29.91 842 24.86 14.9 58.7 34 -0.8 30.6
22:50 1013 29.91 842 24.86 14.9 58.9 34 -0.6 31
22:55 1013 29.91 842 24.86 14.9 58.8 34 -0.6 31
23:00 1013 29.91 842 24.86 15 59 34 -0.6 31
23:05 1012 29.88 842 24.86 15 58.9 35 -0.4 31.3
23:10 1012 29.88 842 24.86 14.7 58.4 36 -0.2 31.6
23:15 1012 29.88 842 24.86 14.4 57.9 36 -0.3 31.5
23:20 1012 29.88 842 24.86 14.4 57.8 36 -0.3 31.5
23:25 1012 29.88 842 24.86 14.3 57.8 37 -0.2 31.7
23:30 1012 29.88 842 24.86 14.2 57.5 37 -0.1 31.8
23:35 1012 29.88 842 24.86 14.3 57.8 37 -0.3 31.5
23:40 1012 29.88 841 24.83 14.3 57.7 37 -0 31.9
23:45 1012 29.88 841 24.83 14.5 58 36 -0.3 31.4
23:50 1012 29.88 841 24.83 14.7 58.4 35 -0.5 31.2
23:55 1012 29.88 841 24.83 14.9 58.8 36 -0.1 31.8
24:00 1012 29.88 841 24.83 14.8 58.6 36 -0.2 31.6